Apple Creek, Missouri
Current Conditions -  °F | °C
As of 3:53 PM on Friday 31 Oct 2014 (Local Time) from KCGI Reporting Station
Clear Clear  
Wind Chill: 39°   Ceiling: Unl
Heat Index: 47°   Visibility: 10mi
Dew Point: 24°   Wind: 25mph
Humidity: 41%   Direction: 360°N
Pressure: 30.23"   Gusts: 35mph
Location:  37.5321°N, 89.7536°W
Report Text: KCGI 312053Z 36022G30KT 10SM CLR 08/M04 A3023 RMK AO2 PK WND 35031/2009 SLP239 T00831044 53012
Loading
Personal Weather Stations






























Interactive Weather Map
Tropical Storm Tracking
New forecast layout! Learn more

10-Day Weather Forecast

Advertisements
Track Severe Weather on mobile